createdAt,value
2023-01-26T00:04:09.816Z,99478.05
2023-01-26T00:09:14.753Z,99472.45
2023-01-26T00:14:22.041Z,99472.07
2023-01-26T00:19:23.889Z,99470.47
2023-01-26T00:24:25.898Z,99461.06
2023-01-26T00:29:27.666Z,99455.86
2023-01-26T00:34:32.696Z,99451.52
2023-01-26T00:39:34.452Z,99451.00
2023-01-26T00:44:38.723Z,99446.24
2023-01-26T00:49:40.461Z,99452.55
2023-01-26T00:54:42.192Z,99447.19
2023-01-26T00:59:43.856Z,99442.96
2023-01-26T01:04:51.127Z,99445.13
2023-01-26T01:09:54.052Z,99443.73
2023-01-26T01:14:55.770Z,99441.85
2023-01-26T01:19:58.831Z,99437.55
2023-01-26T01:25:00.521Z,99433.05
2023-01-26T01:30:08.074Z,99430.55
2023-01-26T01:35:10.075Z,99424.92
2023-01-26T01:40:13.436Z,99422.34
2023-01-26T01:45:27.694Z,99417.71
2023-01-26T01:50:34.619Z,99406.15
2023-01-26T01:55:36.670Z,99404.95
2023-01-26T02:00:39.166Z,99398.04
2023-01-26T02:05:48.934Z,99396.69
2023-01-26T02:10:54.893Z,99395.08
2023-01-26T02:15:59.563Z,99398.04
2023-01-26T02:21:07.631Z,99397.70
2023-01-26T02:26:21.134Z,99389.42
2023-01-26T02:31:25.494Z,99385.11
2023-01-26T02:36:31.056Z,99375.85
2023-01-26T02:41:52.006Z,99373.91
2023-01-26T02:46:55.101Z,99372.10
2023-01-26T02:51:57.241Z,99371.21
2023-01-26T02:56:59.123Z,99363.88
2023-01-26T03:02:01.301Z,99355.58
2023-01-26T03:07:03.179Z,99342.69
2023-01-26T03:12:05.172Z,99337.93
2023-01-26T03:17:06.972Z,99327.27
2023-01-26T03:22:29.060Z,99324.52
2023-01-26T03:27:40.692Z,99322.15
2023-01-26T03:32:42.991Z,99318.68
2023-01-26T03:37:54.538Z,99309.91
2023-01-26T03:43:28.555Z,99312.64
2023-01-26T03:48:49.515Z,99306.62
2023-01-26T03:54:10.631Z,99304.25
2023-01-26T03:59:15.303Z,99294.73
2023-01-26T04:04:36.017Z,99296.57
2023-01-26T04:09:39.663Z,99286.91
2023-01-26T04:15:00.530Z,99285.28
2023-01-26T04:20:21.972Z,99275.88
2023-01-26T04:25:23.906Z,99265.15
2023-01-26T04:30:26.218Z,99249.55
2023-01-26T04:35:30.113Z,99255.39
2023-01-26T04:40:32.097Z,99254.21
2023-01-26T04:45:34.014Z,99256.45
2023-01-26T04:50:36.640Z,99256.59
2023-01-26T04:55:38.437Z,99254.48
2023-01-26T05:00:40.353Z,99249.23
2023-01-26T05:05:42.382Z,99254.60
2023-01-26T05:10:45.151Z,99254.52
2023-01-26T05:15:54.641Z,99247.08
2023-01-26T05:21:12.745Z,99237.97
2023-01-26T05:26:19.211Z,99236.03
2023-01-26T05:31:32.497Z,99234.61
2023-01-26T05:36:34.394Z,99239.83
2023-01-26T05:41:36.227Z,99239.89
2023-01-26T05:46:53.378Z,99242.13
2023-01-26T05:51:55.870Z,99243.61
2023-01-26T05:56:58.437Z,99239.77
2023-01-26T06:02:02.183Z,99243.52
2023-01-26T06:07:04.533Z,99243.30
2023-01-26T06:12:19.976Z,99244.34
2023-01-26T06:17:30.609Z,99239.70
2023-01-26T06:22:35.111Z,99236.10
2023-01-26T06:27:42.068Z,99237.46
2023-01-26T06:32:50.606Z,99236.65
2023-01-26T06:37:53.579Z,99239.17
2023-01-26T06:42:55.612Z,99233.53
2023-01-26T06:47:57.704Z,99232.19
2023-01-26T06:53:02.950Z,99229.84
2023-01-26T06:58:12.113Z,99224.56
2023-01-26T07:03:50.276Z,99223.83
2023-01-26T07:08:51.971Z,99219.38
2023-01-26T07:13:53.719Z,99214.78
2023-01-26T07:18:55.841Z,99203.19
2023-01-26T07:23:57.922Z,99203.70
2023-01-26T07:28:59.612Z,99200.02
2023-01-26T07:34:01.484Z,99197.95
2023-01-26T07:39:03.673Z,99195.57
2023-01-26T07:44:09.921Z,99200.93
2023-01-26T07:49:12.786Z,99202.27
2023-01-26T07:54:14.657Z,99204.27
2023-01-26T07:59:16.312Z,99205.73
2023-01-26T08:04:18.605Z,99207.39
2023-01-26T08:09:20.353Z,99202.73
2023-01-26T08:14:22.137Z,99204.20
2023-01-26T08:19:23.822Z,99202.15
2023-01-26T08:24:26.874Z,99205.67
2023-01-26T08:29:28.646Z,99202.28
2023-01-26T08:34:30.372Z,99195.92
2023-01-26T08:39:32.066Z,99192.17
2023-01-26T08:44:33.784Z,99187.89
2023-01-26T08:49:35.532Z,99188.16
2023-01-26T08:54:37.261Z,99194.63
2023-01-26T08:59:39.085Z,99198.07
2023-01-26T09:04:40.794Z,99200.67
2023-01-26T09:09:42.511Z,99197.69
2023-01-26T09:14:44.255Z,99191.27
2023-01-26T09:19:45.906Z,99188.46
2023-01-26T09:24:47.606Z,99186.30
2023-01-26T09:29:49.435Z,99181.27
2023-01-26T09:34:51.323Z,99184.48
2023-01-26T09:39:53.007Z,99186.54
2023-01-26T09:45:06.900Z,99186.09
2023-01-26T09:50:18.065Z,99183.77
2023-01-26T09:55:22.156Z,99178.32
2023-01-26T10:00:45.460Z,99168.03
2023-01-26T10:06:14.580Z,99165.58
2023-01-26T10:11:44.944Z,99156.81
2023-01-26T10:16:53.155Z,99154.48
2023-01-26T10:21:59.400Z,99153.31
2023-01-26T10:27:01.191Z,99148.86
2023-01-26T10:32:03.726Z,99152.94
2023-01-26T10:37:30.732Z,99149.52
2023-01-26T10:42:35.002Z,99137.59
2023-01-26T10:47:37.446Z,99141.61
2023-01-26T10:52:56.239Z,99142.53
2023-01-26T10:57:58.477Z,99133.60
2023-01-26T11:03:06.151Z,99132.06
2023-01-26T11:08:33.755Z,99121.64
2023-01-26T11:13:35.476Z,99112.01
2023-01-26T11:18:56.044Z,99111.88
2023-01-26T11:24:02.734Z,99111.91
2023-01-26T11:29:17.537Z,99104.95
2023-01-26T11:34:43.925Z,99107.30
2023-01-26T11:40:04.919Z,99098.27
2023-01-26T11:45:26.157Z,99086.64
2023-01-26T11:50:30.943Z,99080.98
2023-01-26T11:56:07.841Z,99078.43
2023-01-26T12:01:55.854Z,99068.03
2023-01-26T12:07:06.840Z,99060.98
2023-01-26T12:12:32.489Z,99049.15
2023-01-26T12:17:40.573Z,99042.31
2023-01-26T12:22:49.555Z,99035.79
2023-01-26T12:28:16.919Z,99030.20
2023-01-26T12:33:19.490Z,99035.25
2023-01-26T12:38:43.075Z,99027.63
2023-01-26T12:44:10.085Z,99027.89
2023-01-26T12:49:20.937Z,99018.88
2023-01-26T12:54:40.930Z,99014.30
2023-01-26T12:59:46.986Z,99019.80
2023-01-26T13:04:51.033Z,99018.79
2023-01-26T13:10:10.076Z,99020.03
2023-01-26T13:15:14.973Z,99021.00
2023-01-26T13:20:43.305Z,99024.42
2023-01-26T13:26:10.043Z,99021.63
2023-01-26T13:31:13.350Z,99011.53
2023-01-26T13:36:19.073Z,99015.88
2023-01-26T13:41:21.444Z,99012.60
2023-01-26T13:46:45.160Z,99014.16
2023-01-26T13:51:49.949Z,99011.21
2023-01-26T13:57:06.564Z,99006.45
2023-01-26T14:02:22.833Z,99000.86
2023-01-26T14:07:40.900Z,98998.84
2023-01-26T14:12:47.166Z,99005.05
2023-01-26T14:17:52.570Z,99003.19
2023-01-26T14:23:10.317Z,98999.85
2023-01-26T14:28:17.177Z,98999.95
2023-01-26T14:33:18.946Z,99004.66
2023-01-26T14:38:21.150Z,99003.81
2023-01-26T14:43:24.373Z,99008.39
2023-01-26T14:48:34.879Z,99010.48
2023-01-26T14:53:37.471Z,99002.77
2023-01-26T14:58:39.484Z,98989.27
2023-01-26T15:03:41.357Z,98988.78
2023-01-26T15:08:53.842Z,98992.66
2023-01-26T15:13:56.390Z,98994.45
2023-01-26T15:19:07.942Z,98995.30
2023-01-26T15:24:14.886Z,98993.48
2023-01-26T15:29:31.070Z,98999.30
2023-01-26T15:34:42.253Z,99002.55
2023-01-26T15:39:44.025Z,99003.89
2023-01-26T15:44:45.715Z,99001.95
2023-01-26T15:49:47.337Z,99002.29
2023-01-26T15:54:50.864Z,99004.96
2023-01-26T15:59:52.595Z,99000.65
2023-01-26T16:04:54.376Z,98999.84
2023-01-26T16:09:55.993Z,98998.77
2023-01-26T16:14:58.075Z,98996.87
2023-01-26T16:20:00.349Z,98996.34
2023-01-26T16:25:02.018Z,98988.70
2023-01-26T16:30:03.767Z,98989.18
2023-01-26T16:35:14.661Z,98992.20
2023-01-26T16:40:20.882Z,98988.45
2023-01-26T16:45:28.943Z,98986.06
2023-01-26T16:50:31.746Z,98980.83
2023-01-26T16:55:33.542Z,98982.14
2023-01-26T17:00:35.171Z,98988.02
2023-01-26T17:05:36.916Z,98988.91
2023-01-26T17:10:48.932Z,98991.34
2023-01-26T17:16:00.853Z,98987.29
2023-01-26T17:21:03.527Z,98983.56
2023-01-26T17:26:05.226Z,98984.58
2023-01-26T17:31:10.847Z,98986.07
2023-01-26T17:36:14.027Z,98990.59
2023-01-26T17:41:16.660Z,98992.98
2023-01-26T17:46:20.708Z,98989.98
2023-01-26T17:51:23.243Z,98990.38
2023-01-26T17:56:25.204Z,98997.01
2023-01-26T18:01:27.037Z,99001.63
2023-01-26T18:06:29.740Z,99009.76
2023-01-26T18:11:31.738Z,99015.56
2023-01-26T18:16:33.946Z,99009.61
2023-01-26T18:21:36.979Z,99012.52
2023-01-26T18:26:39.234Z,99012.40
2023-01-26T18:31:41.092Z,99011.05
2023-01-26T18:36:42.849Z,99012.92
2023-01-26T18:41:44.675Z,99010.88
2023-01-26T18:46:46.366Z,99004.27
2023-01-26T18:51:48.329Z,99000.04
2023-01-26T18:56:50.060Z,98997.93
2023-01-26T19:01:51.801Z,99003.89
2023-01-26T19:06:53.489Z,99001.95
2023-01-26T19:11:55.496Z,98998.63
2023-01-26T19:16:57.283Z,98994.73
2023-01-26T19:21:59.176Z,98998.01
2023-01-26T19:27:01.585Z,99001.66
2023-01-26T19:32:03.515Z,99003.20
2023-01-26T19:37:05.271Z,99006.08
2023-01-26T19:42:07.027Z,99008.00
2023-01-26T19:47:08.631Z,99008.17
2023-01-26T19:52:10.343Z,99008.65
2023-01-26T19:57:12.141Z,99009.10
2023-01-26T20:02:13.867Z,99004.91
2023-01-26T20:07:15.796Z,99005.90
2023-01-26T20:12:20.397Z,99001.31
2023-01-26T20:17:22.293Z,99000.71
2023-01-26T20:22:24.400Z,98999.38
2023-01-26T20:27:26.499Z,98996.27
2023-01-26T20:32:28.722Z,98993.73
2023-01-26T20:37:30.657Z,98989.51
2023-01-26T20:42:33.315Z,98987.50
2023-01-26T20:47:38.334Z,98978.40
2023-01-26T20:52:42.787Z,98979.04
2023-01-26T20:57:45.453Z,98976.81
2023-01-26T21:02:47.303Z,98974.02
2023-01-26T21:07:49.239Z,98973.81
2023-01-26T21:12:51.506Z,98974.45
2023-01-26T21:17:56.336Z,98974.52
2023-01-26T21:22:59.905Z,98973.64
2023-01-26T21:28:01.988Z,98974.24
2023-01-26T21:33:03.859Z,98970.11
2023-01-26T21:38:06.465Z,98965.48
2023-01-26T21:43:08.232Z,98967.55
2023-01-26T21:48:28.012Z,98970.72
2023-01-26T21:53:29.835Z,98965.71
2023-01-26T21:58:50.391Z,98965.86
2023-01-26T22:03:57.379Z,98960.95
2023-01-26T22:08:59.522Z,98955.94
2023-01-26T22:14:12.644Z,98950.84
2023-01-26T22:19:14.822Z,98950.16
2023-01-26T22:24:17.934Z,98946.48
2023-01-26T22:29:20.201Z,98948.27
2023-01-26T22:34:22.624Z,98942.39
2023-01-26T22:39:24.293Z,98938.33
2023-01-26T22:44:28.898Z,98940.56
2023-01-26T22:49:30.702Z,98942.65
2023-01-26T22:54:32.493Z,98941.73
2023-01-26T22:59:34.198Z,98942.72
2023-01-26T23:04:35.839Z,98940.50
2023-01-26T23:09:37.548Z,98934.58
2023-01-26T23:14:39.239Z,98933.60
2023-01-26T23:19:40.851Z,98935.63
2023-01-26T23:25:02.584Z,98935.00
2023-01-26T23:30:04.650Z,98938.05
2023-01-26T23:35:06.567Z,98932.39
2023-01-26T23:40:09.279Z,98930.89
2023-01-26T23:45:11.166Z,98931.64
2023-01-26T23:50:13.085Z,98933.58
2023-01-26T23:55:15.154Z,98928.08
